Estación Meteorológica Peña el Pijo (Robertgarden) [ 07/23/19 13:43:59 CEST ]

Fecha Hora Presion(HPa) Temp (°C) Humedad % Rocio (°C) Viento ( m/s) Direccion Lluvia 1Hora(mm) Lluvia 24H(mm) LLuvia Total(mm)
2019-May-20 01:01:46 1004.800 13.3 66 7.1         318.05
2019-May-20 02:01:45 1004.600 12.4 67 6.4         318.05
2019-May-20 03:01:41 1004.000 13.3 69 7.7         318.05
2019-May-20 04:08:50 1003.700 12.6 67 6.6         318.05
2019-May-20 05:01:42 1003.600 11.6 70 6.3         318.05
2019-May-20 06:01:42 1003.500 13.1 74 8.5         318.05
2019-May-20 07:01:50 1003.700 - - -         318.05
2019-May-20 08:01:36 1004.300 32.1 82 28.6         318.05
2019-May-20 09:01:49 1004.400 17.8 65 11.1         318.05
2019-May-20 10:01:57 1004.500 18.3 44 5.8         318.05
2019-May-20 11:01:48 1004.600 20.3 33 3.4 2.3 WNW     318.05
2019-May-20 12:01:46 1004.500 22.6 29 3.6         318.05
2019-May-20 13:01:48 1004.200 24.1 25 2.6         318.05
2019-May-20 14:01:38 1004.000 24.1 26 2.5         318.05
2019-May-20 15:01:24 1003.700 25.0 25 3.4         318.05
2019-May-20 16:01:11 1003.500 22.5 29 3.1         318.05
2019-May-20 17:01:44 1003.100 24.3 27 3.9         318.05
2019-May-20 18:02:05 1003.100 24.5 25 3.0         318.05
2019-May-20 19:01:56 1003.200 21.6 32 4.2         318.05
2019-May-20 20:01:46 1003.500 19.4 40 5.5 0.6 N     318.05
2019-May-20 21:01:46 1004.100 18.1 45 5.9         318.05
2019-May-20 22:01:47 1004.800 17.4 51 7.1         318.05
2019-May-20 23:01:42 1005.500 15.8 60 8.1         318.05

Temperatura Máxima:32°    Temperatura Mínima:
Presión Máxima:1005.500 Hpa    Presión Mínima:1003.100 Hpa


Volver